sensor_id;sensor_type;location;lat;lon;timestamp;pressure;altitude;pressure_sealevel;temperature;humidity
37368;BME280;23240;43.210;27.910;2022-12-18T00:00:27;101728.34;;;11.38;100.00
37368;BME280;23240;43.210;27.910;2022-12-18T00:02:52;101724.38;;;11.43;100.00
37368;BME280;23240;43.210;27.910;2022-12-18T00:05:18;101736.69;;;11.46;100.00
37368;BME280;23240;43.210;27.910;2022-12-18T00:07:43;101726.41;;;11.52;100.00
37368;BME280;23240;43.210;27.910;2022-12-18T00:10:09;101738.88;;;11.53;100.00
37368;BME280;23240;43.210;27.910;2022-12-18T00:12:34;101739.94;;;11.51;100.00
37368;BME280;23240;43.210;27.910;2022-12-18T00:15:00;101743.16;;;11.56;100.00
37368;BME280;23240;43.210;27.910;2022-12-18T00:17:25;101747.75;;;11.54;100.00
37368;BME280;23240;43.210;27.910;2022-12-18T00:19:51;101741.00;;;11.48;100.00
37368;BME280;23240;43.210;27.910;2022-12-18T00:22:16;101738.22;;;11.50;100.00
37368;BME280;23240;43.210;27.910;2022-12-18T00:24:42;101743.03;;;11.45;100.00
37368;BME280;23240;43.210;27.910;2022-12-18T00:27:07;101752.91;;;11.44;100.00
37368;BME280;23240;43.210;27.910;2022-12-18T00:29:33;101752.38;;;11.39;100.00
37368;BME280;23240;43.210;27.910;2022-12-18T00:31:59;101749.81;;;11.38;100.00
37368;BME280;23240;43.210;27.910;2022-12-18T00:34:24;101768.66;;;11.36;100.00
37368;BME280;23240;43.210;27.910;2022-12-18T00:36:50;101777.06;;;11.31;100.00
37368;BME280;23240;43.210;27.910;2022-12-18T00:39:15;101782.81;;;11.25;100.00
37368;BME280;23240;43.210;27.910;2022-12-18T00:41:41;101777.69;;;11.22;100.00
37368;BME280;23240;43.210;27.910;2022-12-18T00:44:25;101772.72;;;11.16;100.00
37368;BME280;23240;43.210;27.910;2022-12-18T00:46:50;101768.53;;;11.12;100.00
37368;BME280;23240;43.210;27.910;2022-12-18T00:49:17;101769.91;;;11.05;100.00
37368;BME280;23240;43.210;27.910;2022-12-18T00:51:43;101777.22;;;11.03;100.00
37368;BME280;23240;43.210;27.910;2022-12-18T00:54:09;101775.56;;;11.00;100.00
37368;BME280;23240;43.210;27.910;2022-12-18T00:56:37;101769.47;;;10.98;100.00
37368;BME280;23240;43.210;27.910;2022-12-18T00:59:04;101791.97;;;10.96;100.00
37368;BME280;23240;43.210;27.910;2022-12-18T01:01:29;101784.22;;;10.91;100.00
37368;BME280;23240;43.210;27.910;2022-12-18T01:04:00;101790.91;;;10.98;100.00
37368;BME280;23240;43.210;27.910;2022-12-18T01:06:26;101790.06;;;10.98;100.00
37368;BME280;23240;43.210;27.910;2022-12-18T01:08:51;101788.53;;;10.94;100.00
37368;BME280;23240;43.210;27.910;2022-12-18T01:11:19;101790.44;;;10.92;100.00
37368;BME280;23240;43.210;27.910;2022-12-18T01:13:45;101790.25;;;10.95;100.00
37368;BME280;23240;43.210;27.910;2022-12-18T01:16:12;101799.16;;;10.95;100.00
37368;BME280;23240;43.210;27.910;2022-12-18T01:18:38;101801.94;;;10.94;100.00
37368;BME280;23240;43.210;27.910;2022-12-18T01:21:16;101802.50;;;10.99;100.00
37368;BME280;23240;43.210;27.910;2022-12-18T01:23:42;101808.06;;;10.96;100.00
37368;BME280;23240;43.210;27.910;2022-12-18T01:26:10;101813.53;;;10.94;100.00
37368;BME280;23240;43.210;27.910;2022-12-18T01:28:36;101810.00;;;10.94;100.00
37368;BME280;23240;43.210;27.910;2022-12-18T01:31:22;101806.34;;;10.95;100.00
37368;BME280;23240;43.210;27.910;2022-12-18T01:33:49;101802.91;;;10.93;100.00
37368;BME280;23240;43.210;27.910;2022-12-18T01:36:17;101797.75;;;10.90;100.00
37368;BME280;23240;43.210;27.910;2022-12-18T01:38:43;101804.94;;;10.89;100.00
37368;BME280;23240;43.210;27.910;2022-12-18T01:41:09;101804.25;;;10.86;100.00
37368;BME280;23240;43.210;27.910;2022-12-18T01:43:54;101811.34;;;10.87;100.00
37368;BME280;23240;43.210;27.910;2022-12-18T01:46:25;101817.84;;;10.82;100.00
37368;BME280;23240;43.210;27.910;2022-12-18T01:48:55;101813.47;;;10.81;100.00
37368;BME280;23240;43.210;27.910;2022-12-18T01:51:22;101832.03;;;10.85;100.00
37368;BME280;23240;43.210;27.910;2022-12-18T01:53:48;101839.41;;;10.81;100.00
37368;BME280;23240;43.210;27.910;2022-12-18T01:56:19;101844.56;;;10.84;100.00
37368;BME280;23240;43.210;27.910;2022-12-18T01:58:58;101838.56;;;10.80;100.00
37368;BME280;23240;43.210;27.910;2022-12-18T02:01:25;101832.03;;;10.85;100.00
37368;BME280;23240;43.210;27.910;2022-12-18T02:03:51;101837.59;;;10.81;100.00
37368;BME280;23240;43.210;27.910;2022-12-18T02:14:50;101841.22;;;10.80;100.00
37368;BME280;23240;43.210;27.910;2022-12-18T02:17:22;101845.19;;;10.75;100.00
37368;BME280;23240;43.210;27.910;2022-12-18T02:23:01;101838.41;;;10.69;100.00
37368;BME280;23240;43.210;27.910;2022-12-18T02:27:57;101838.59;;;10.66;100.00
37368;BME280;23240;43.210;27.910;2022-12-18T02:30:26;101846.91;;;10.62;100.00
37368;BME280;23240;43.210;27.910;2022-12-18T02:32:55;101856.03;;;10.59;100.00
37368;BME280;23240;43.210;27.910;2022-12-18T02:35:27;101858.03;;;10.55;100.00
37368;BME280;23240;43.210;27.910;2022-12-18T02:37:55;101874.50;;;10.49;100.00
37368;BME280;23240;43.210;27.910;2022-12-18T02:40:22;101883.69;;;10.45;100.00
37368;BME280;23240;43.210;27.910;2022-12-18T02:42:48;101870.94;;;10.49;100.00
37368;BME280;23240;43.210;27.910;2022-12-18T02:45:14;101879.19;;;10.46;100.00
37368;BME280;23240;43.210;27.910;2022-12-18T02:47:42;101888.75;;;10.50;100.00
37368;BME280;23240;43.210;27.910;2022-12-18T02:50:30;101898.78;;;10.46;100.00
37368;BME280;23240;43.210;27.910;2022-12-18T02:53:10;101911.72;;;10.40;100.00
37368;BME280;23240;43.210;27.910;2022-12-18T02:56:15;101913.78;;;10.35;100.00
37368;BME280;23240;43.210;27.910;2022-12-18T03:04:07;101896.22;;;10.31;100.00
37368;BME280;23240;43.210;27.910;2022-12-18T03:06:41;101898.31;;;10.25;100.00
37368;BME280;23240;43.210;27.910;2022-12-18T03:09:15;101902.88;;;10.23;100.00
37368;BME280;23240;43.210;27.910;2022-12-18T03:11:52;101911.84;;;10.22;100.00
37368;BME280;23240;43.210;27.910;2022-12-18T03:14:40;101910.44;;;10.17;100.00
37368;BME280;23240;43.210;27.910;2022-12-18T03:17:10;101894.53;;;10.14;100.00
37368;BME280;23240;43.210;27.910;2022-12-18T03:19:37;101894.75;;;10.11;100.00
37368;BME280;23240;43.210;27.910;2022-12-18T03:22:05;101896.47;;;10.12;100.00
37368;BME280;23240;43.210;27.910;2022-12-18T03:24:33;101901.25;;;10.07;100.00
37368;BME280;23240;43.210;27.910;2022-12-18T03:27:06;101905.91;;;10.03;100.00
37368;BME280;23240;43.210;27.910;2022-12-18T03:29:34;101912.56;;;9.96;100.00
37368;BME280;23240;43.210;27.910;2022-12-18T03:32:31;101902.81;;;9.95;100.00
37368;BME280;23240;43.210;27.910;2022-12-18T03:35:03;101901.22;;;9.92;100.00
37368;BME280;23240;43.210;27.910;2022-12-18T03:37:29;101901.56;;;9.86;100.00
37368;BME280;23240;43.210;27.910;2022-12-18T03:39:55;101908.72;;;9.86;100.00
37368;BME280;23240;43.210;27.910;2022-12-18T03:45:09;101924.34;;;9.93;100.00
37368;BME280;23240;43.210;27.910;2022-12-18T03:50:36;101922.94;;;10.02;100.00
37368;BME280;23240;43.210;27.910;2022-12-18T03:56:18;101930.59;;;10.08;100.00
37368;BME280;23240;43.210;27.910;2022-12-18T03:58:45;101938.44;;;10.11;100.00
37368;BME280;23240;43.210;27.910;2022-12-18T04:01:15;101952.41;;;10.16;100.00
37368;BME280;23240;43.210;27.910;2022-12-18T04:03:42;101970.00;;;10.20;100.00
37368;BME280;23240;43.210;27.910;2022-12-18T04:06:09;101982.78;;;10.31;100.00
37368;BME280;23240;43.210;27.910;2022-12-18T04:08:35;101990.59;;;10.34;100.00
37368;BME280;23240;43.210;27.910;2022-12-18T04:11:01;102002.28;;;10.33;100.00
37368;BME280;23240;43.210;27.910;2022-12-18T04:13:33;101994.16;;;10.35;100.00
37368;BME280;23240;43.210;27.910;2022-12-18T04:15:59;102006.50;;;10.37;100.00
37368;BME280;23240;43.210;27.910;2022-12-18T04:18:25;102017.63;;;10.45;100.00
37368;BME280;23240;43.210;27.910;2022-12-18T04:20:50;102022.31;;;10.42;100.00
37368;BME280;23240;43.210;27.910;2022-12-18T04:23:16;102021.88;;;10.34;100.00
37368;BME280;23240;43.210;27.910;2022-12-18T04:25:41;102043.69;;;10.27;100.00
37368;BME280;23240;43.210;27.910;2022-12-18T04:28:07;102037.41;;;10.13;100.00
37368;BME280;23240;43.210;27.910;2022-12-18T04:30:33;102042.97;;;9.94;100.00
37368;BME280;23240;43.210;27.910;2022-12-18T04:32:58;102056.88;;;9.85;100.00
37368;BME280;23240;43.210;27.910;2022-12-18T04:35:24;102058.34;;;9.74;100.00
37368;BME280;23240;43.210;27.910;2022-12-18T04:37:49;102063.00;;;9.71;100.00
37368;BME280;23240;43.210;27.910;2022-12-18T04:40:15;102061.75;;;9.62;100.00
37368;BME280;23240;43.210;27.910;2022-12-18T04:42:40;102058.03;;;9.49;100.00
37368;BME280;23240;43.210;27.910;2022-12-18T04:45:06;102075.44;;;9.40;100.00
37368;BME280;23240;43.210;27.910;2022-12-18T04:47:32;102078.28;;;9.37;100.00
37368;BME280;23240;43.210;27.910;2022-12-18T04:49:58;102085.09;;;9.27;100.00
37368;BME280;23240;43.210;27.910;2022-12-18T04:52:23;102102.34;;;9.21;100.00
37368;BME280;23240;43.210;27.910;2022-12-18T04:54:49;102097.13;;;9.18;100.00
37368;BME280;23240;43.210;27.910;2022-12-18T04:57:14;102100.00;;;9.15;100.00
37368;BME280;23240;43.210;27.910;2022-12-18T04:59:40;102094.03;;;9.10;100.00
37368;BME280;23240;43.210;27.910;2022-12-18T05:02:05;102103.31;;;9.03;100.00
37368;BME280;23240;43.210;27.910;2022-12-18T05:04:31;102115.81;;;9.02;100.00
37368;BME280;23240;43.210;27.910;2022-12-18T05:06:56;102123.38;;;8.94;100.00
37368;BME280;23240;43.210;27.910;2022-12-18T05:09:22;102131.94;;;9.01;100.00
37368;BME280;23240;43.210;27.910;2022-12-18T05:11:48;102139.78;;;9.04;100.00
37368;BME280;23240;43.210;27.910;2022-12-18T05:14:14;102145.94;;;9.06;100.00
37368;BME280;23240;43.210;27.910;2022-12-18T05:16:39;102139.63;;;9.07;100.00
37368;BME280;23240;43.210;27.910;2022-12-18T05:19:05;102149.31;;;8.92;100.00
37368;BME280;23240;43.210;27.910;2022-12-18T05:21:30;102147.69;;;8.90;100.00
37368;BME280;23240;43.210;27.910;2022-12-18T05:23:56;102160.50;;;8.83;100.00
37368;BME280;23240;43.210;27.910;2022-12-18T05:26:21;102163.25;;;8.82;100.00
37368;BME280;23240;43.210;27.910;2022-12-18T05:28:47;102175.97;;;8.77;100.00
37368;BME280;23240;43.210;27.910;2022-12-18T05:31:13;102172.81;;;8.68;100.00
37368;BME280;23240;43.210;27.910;2022-12-18T05:33:38;102180.84;;;8.51;100.00
37368;BME280;23240;43.210;27.910;2022-12-18T05:36:06;102196.69;;;8.54;100.00
37368;BME280;23240;43.210;27.910;2022-12-18T05:38:34;102192.22;;;8.55;100.00
37368;BME280;23240;43.210;27.910;2022-12-18T05:41:00;102198.59;;;8.52;100.00
37368;BME280;23240;43.210;27.910;2022-12-18T05:43:26;102205.66;;;8.53;100.00
37368;BME280;23240;43.210;27.910;2022-12-18T05:45:53;102202.81;;;8.39;100.00
37368;BME280;23240;43.210;27.910;2022-12-18T05:48:19;102218.94;;;8.36;100.00
37368;BME280;23240;43.210;27.910;2022-12-18T05:50:47;102210.59;;;8.24;100.00
37368;BME280;23240;43.210;27.910;2022-12-18T05:53:14;102220.81;;;8.34;100.00
37368;BME280;23240;43.210;27.910;2022-12-18T05:55:41;102235.13;;;8.33;100.00
37368;BME280;23240;43.210;27.910;2022-12-18T05:58:08;102244.44;;;8.24;100.00
37368;BME280;23240;43.210;27.910;2022-12-18T06:00:36;102247.09;;;8.24;100.00
37368;BME280;23240;43.210;27.910;2022-12-18T06:03:05;102249.00;;;8.22;100.00
37368;BME280;23240;43.210;27.910;2022-12-18T06:05:36;102257.25;;;7.97;100.00
37368;BME280;23240;43.210;27.910;2022-12-18T06:08:02;102270.25;;;7.86;100.00
37368;BME280;23240;43.210;27.910;2022-12-18T06:10:28;102275.13;;;7.76;100.00
37368;BME280;23240;43.210;27.910;2022-12-18T06:12:53;102288.53;;;7.75;100.00
37368;BME280;23240;43.210;27.910;2022-12-18T06:15:19;102288.38;;;7.78;100.00
37368;BME280;23240;43.210;27.910;2022-12-18T06:17:44;102301.81;;;7.76;100.00
37368;BME280;23240;43.210;27.910;2022-12-18T06:20:10;102325.16;;;7.71;100.00
37368;BME280;23240;43.210;27.910;2022-12-18T06:22:35;102343.69;;;7.74;100.00
37368;BME280;23240;43.210;27.910;2022-12-18T06:25:01;102351.50;;;7.79;100.00
37368;BME280;23240;43.210;27.910;2022-12-18T06:27:26;102360.22;;;7.82;100.00
37368;BME280;23240;43.210;27.910;2022-12-18T06:29:52;102365.50;;;7.84;100.00
37368;BME280;23240;43.210;27.910;2022-12-18T06:32:17;102366.94;;;7.91;100.00
37368;BME280;23240;43.210;27.910;2022-12-18T06:34:43;102378.19;;;7.97;100.00
37368;BME280;23240;43.210;27.910;2022-12-18T06:37:08;102376.69;;;7.92;100.00
37368;BME280;23240;43.210;27.910;2022-12-18T06:39:34;102383.78;;;7.93;100.00
37368;BME280;23240;43.210;27.910;2022-12-18T06:41:59;102386.28;;;7.96;100.00
37368;BME280;23240;43.210;27.910;2022-12-18T06:44:25;102405.13;;;7.93;100.00
37368;BME280;23240;43.210;27.910;2022-12-18T06:46:50;102409.34;;;7.97;100.00
37368;BME280;23240;43.210;27.910;2022-12-18T06:49:16;102414.31;;;7.86;100.00
37368;BME280;23240;43.210;27.910;2022-12-18T06:51:42;102413.38;;;7.87;100.00
37368;BME280;23240;43.210;27.910;2022-12-18T06:54:08;102408.84;;;7.89;100.00
37368;BME280;23240;43.210;27.910;2022-12-18T06:56:34;102410.38;;;7.94;100.00
37368;BME280;23240;43.210;27.910;2022-12-18T06:59:00;102409.22;;;8.00;100.00
37368;BME280;23240;43.210;27.910;2022-12-18T07:01:25;102422.13;;;7.70;100.00
37368;BME280;23240;43.210;27.910;2022-12-18T07:03:53;102423.09;;;7.67;100.00
37368;BME280;23240;43.210;27.910;2022-12-18T07:06:22;102422.56;;;7.59;100.00
37368;BME280;23240;43.210;27.910;2022-12-18T07:08:48;102432.94;;;7.45;100.00
37368;BME280;23240;43.210;27.910;2022-12-18T07:11:15;102440.00;;;7.46;100.00
37368;BME280;23240;43.210;27.910;2022-12-18T07:13:41;102440.94;;;7.45;100.00
37368;BME280;23240;43.210;27.910;2022-12-18T07:16:09;102446.97;;;7.50;100.00
37368;BME280;23240;43.210;27.910;2022-12-18T07:18:35;102449.66;;;7.48;100.00
37368;BME280;23240;43.210;27.910;2022-12-18T07:21:05;102452.53;;;7.44;100.00
37368;BME280;23240;43.210;27.910;2022-12-18T07:23:32;102456.38;;;7.37;100.00
37368;BME280;23240;43.210;27.910;2022-12-18T07:26:01;102465.06;;;7.42;100.00
37368;BME280;23240;43.210;27.910;2022-12-18T07:28:27;102461.84;;;7.34;100.00
37368;BME280;23240;43.210;27.910;2022-12-18T07:30:52;102467.84;;;7.17;100.00
37368;BME280;23240;43.210;27.910;2022-12-18T07:33:18;102462.34;;;7.21;100.00
37368;BME280;23240;43.210;27.910;2022-12-18T07:35:43;102461.59;;;7.18;100.00
37368;BME280;23240;43.210;27.910;2022-12-18T07:38:09;102460.22;;;7.30;100.00
37368;BME280;23240;43.210;27.910;2022-12-18T07:40:34;102471.53;;;7.36;100.00
37368;BME280;23240;43.210;27.910;2022-12-18T07:43:00;102481.50;;;7.31;100.00
37368;BME280;23240;43.210;27.910;2022-12-18T07:45:26;102475.72;;;7.42;100.00
37368;BME280;23240;43.210;27.910;2022-12-18T07:47:51;102486.38;;;7.42;100.00
37368;BME280;23240;43.210;27.910;2022-12-18T07:50:17;102479.19;;;7.44;100.00
37368;BME280;23240;43.210;27.910;2022-12-18T07:52:42;102475.81;;;7.40;100.00
37368;BME280;23240;43.210;27.910;2022-12-18T07:55:08;102482.94;;;7.40;100.00
37368;BME280;23240;43.210;27.910;2022-12-18T07:57:33;102475.72;;;7.42;100.00
37368;BME280;23240;43.210;27.910;2022-12-18T07:59:59;102481.47;;;7.53;100.00
37368;BME280;23240;43.210;27.910;2022-12-18T08:02:24;102494.59;;;7.59;100.00
37368;BME280;23240;43.210;27.910;2022-12-18T08:04:50;102494.31;;;7.65;100.00
37368;BME280;23240;43.210;27.910;2022-12-18T08:07:15;102499.50;;;7.68;100.00
37368;BME280;23240;43.210;27.910;2022-12-18T08:09:41;102502.63;;;7.80;100.00
37368;BME280;23240;43.210;27.910;2022-12-18T08:12:06;102512.06;;;7.66;100.00
37368;BME280;23240;43.210;27.910;2022-12-18T08:14:32;102513.47;;;7.53;100.00
37368;BME280;23240;43.210;27.910;2022-12-18T08:16:58;102514.97;;;7.38;100.00
37368;BME280;23240;43.210;27.910;2022-12-18T08:19:23;102517.03;;;7.32;100.00
37368;BME280;23240;43.210;27.910;2022-12-18T08:21:49;102511.53;;;7.13;100.00
37368;BME280;23240;43.210;27.910;2022-12-18T08:24:14;102506.38;;;7.08;100.00
37368;BME280;23240;43.210;27.910;2022-12-18T08:26:40;102508.47;;;7.00;100.00
37368;BME280;23240;43.210;27.910;2022-12-18T08:29:05;102499.50;;;7.03;100.00
37368;BME280;23240;43.210;27.910;2022-12-18T08:31:31;102502.97;;;7.05;100.00
37368;BME280;23240;43.210;27.910;2022-12-18T08:33:56;102500.00;;;7.12;100.00
37368;BME280;23240;43.210;27.910;2022-12-18T08:36:23;102501.38;;;7.22;100.00
37368;BME280;23240;43.210;27.910;2022-12-18T08:38:49;102511.88;;;7.27;100.00
37368;BME280;23240;43.210;27.910;2022-12-18T08:41:16;102511.00;;;7.27;100.00
37368;BME280;23240;43.210;27.910;2022-12-18T08:43:42;102499.88;;;7.15;100.00
37368;BME280;23240;43.210;27.910;2022-12-18T08:46:27;102496.78;;;7.04;100.00
37368;BME280;23240;43.210;27.910;2022-12-18T08:48:57;102499.44;;;7.04;100.00
37368;BME280;23240;43.210;27.910;2022-12-18T08:51:23;102502.69;;;7.12;100.00
37368;BME280;23240;43.210;27.910;2022-12-18T08:53:48;102502.88;;;7.30;100.00
37368;BME280;23240;43.210;27.910;2022-12-18T08:56:14;102513.13;;;7.40;100.00
37368;BME280;23240;43.210;27.910;2022-12-18T08:58:40;102503.50;;;7.36;100.00
37368;BME280;23240;43.210;27.910;2022-12-18T09:01:08;102497.53;;;7.30;100.00
37368;BME280;23240;43.210;27.910;2022-12-18T09:03:35;102501.44;;;7.43;100.00
37368;BME280;23240;43.210;27.910;2022-12-18T09:06:00;102507.72;;;7.42;100.00
37368;BME280;23240;43.210;27.910;2022-12-18T09:08:26;102501.28;;;7.26;100.00
37368;BME280;23240;43.210;27.910;2022-12-18T09:10:52;102504.38;;;7.37;100.00
37368;BME280;23240;43.210;27.910;2022-12-18T09:13:18;102504.94;;;7.45;100.00
37368;BME280;23240;43.210;27.910;2022-12-18T09:15:49;102501.66;;;7.60;100.00
37368;BME280;23240;43.210;27.910;2022-12-18T09:18:17;102487.38;;;7.61;100.00
37368;BME280;23240;43.210;27.910;2022-12-18T09:20:43;102493.38;;;7.66;100.00
37368;BME280;23240;43.210;27.910;2022-12-18T09:23:09;102494.59;;;7.59;100.00
37368;BME280;23240;43.210;27.910;2022-12-18T09:25:35;102501.88;;;7.54;100.00
37368;BME280;23240;43.210;27.910;2022-12-18T09:28:04;102495.75;;;7.52;100.00
37368;BME280;23240;43.210;27.910;2022-12-18T09:30:30;102499.97;;;7.58;100.00
37368;BME280;23240;43.210;27.910;2022-12-18T09:32:58;102495.78;;;7.72;100.00
37368;BME280;23240;43.210;27.910;2022-12-18T09:35:24;102499.94;;;7.80;100.00
37368;BME280;23240;43.210;27.910;2022-12-18T09:37:49;102501.47;;;7.85;100.00
37368;BME280;23240;43.210;27.910;2022-12-18T09:40:21;102501.19;;;7.71;100.00
37368;BME280;23240;43.210;27.910;2022-12-18T09:42:59;102502.66;;;7.78;100.00
37368;BME280;23240;43.210;27.910;2022-12-18T09:45:27;102501.13;;;7.72;100.00
37368;BME280;23240;43.210;27.910;2022-12-18T09:47:54;102500.91;;;7.57;100.00
37368;BME280;23240;43.210;27.910;2022-12-18T09:50:29;102506.94;;;7.40;100.00
37368;BME280;23240;43.210;27.910;2022-12-18T09:52:59;102502.63;;;7.36;100.00
37368;BME280;23240;43.210;27.910;2022-12-18T09:55:37;102501.81;;;7.34;100.00
37368;BME280;23240;43.210;27.910;2022-12-18T09:58:26;102498.78;;;7.43;100.00
37368;BME280;23240;43.210;27.910;2022-12-18T10:00:54;102491.16;;;7.56;100.00
37368;BME280;23240;43.210;27.910;2022-12-18T10:03:20;102490.81;;;7.63;100.00
37368;BME280;23240;43.210;27.910;2022-12-18T10:14:09;102492.06;;;7.77;100.00
37368;BME280;23240;43.210;27.910;2022-12-18T10:17:05;102484.13;;;7.75;100.00
37368;BME280;23240;43.210;27.910;2022-12-18T10:20:01;102490.44;;;7.72;100.00
37368;BME280;23240;43.210;27.910;2022-12-18T10:25:23;102488.16;;;8.06;100.00
37368;BME280;23240;43.210;27.910;2022-12-18T10:27:54;102491.00;;;8.21;100.00
37368;BME280;23240;43.210;27.910;2022-12-18T10:30:22;102487.53;;;8.41;100.00
37368;BME280;23240;43.210;27.910;2022-12-18T10:32:48;102492.78;;;8.43;100.00
37368;BME280;23240;43.210;27.910;2022-12-18T10:35:22;102492.28;;;8.54;100.00
37368;BME280;23240;43.210;27.910;2022-12-18T10:40:30;102489.69;;;8.32;100.00
37368;BME280;23240;43.210;27.910;2022-12-18T10:43:11;102502.22;;;8.30;100.00
37368;BME280;23240;43.210;27.910;2022-12-18T10:45:37;102498.41;;;8.35;100.00
37368;BME280;23240;43.210;27.910;2022-12-18T10:48:03;102504.25;;;8.24;100.00
37368;BME280;23240;43.210;27.910;2022-12-18T10:50:34;102506.63;;;8.31;100.00
37368;BME280;23240;43.210;27.910;2022-12-18T10:53:01;102511.84;;;8.13;100.00
37368;BME280;23240;43.210;27.910;2022-12-18T10:55:39;102511.31;;;8.25;100.00
37368;BME280;23240;43.210;27.910;2022-12-18T11:00:45;102522.44;;;8.37;100.00
37368;BME280;23240;43.210;27.910;2022-12-18T11:06:13;102517.13;;;8.56;100.00
37368;BME280;23240;43.210;27.910;2022-12-18T11:08:39;102526.03;;;8.56;100.00
37368;BME280;23240;43.210;27.910;2022-12-18T11:11:15;102524.97;;;8.79;100.00
37368;BME280;23240;43.210;27.910;2022-12-18T11:14:13;102531.13;;;8.81;100.00
37368;BME280;23240;43.210;27.910;2022-12-18T11:16:43;102544.53;;;8.80;100.00
37368;BME280;23240;43.210;27.910;2022-12-18T11:19:37;102534.69;;;8.41;100.00
37368;BME280;23240;43.210;27.910;2022-12-18T11:22:28;102535.44;;;8.02;100.00
37368;BME280;23240;43.210;27.910;2022-12-18T11:25:01;102547.31;;;7.95;100.00
37368;BME280;23240;43.210;27.910;2022-12-18T11:27:28;102550.94;;;8.14;100.00
37368;BME280;23240;43.210;27.910;2022-12-18T11:30:13;102551.50;;;8.22;100.00
37368;BME280;23240;43.210;27.910;2022-12-18T11:33:15;102546.66;;;8.10;100.00
37368;BME280;23240;43.210;27.910;2022-12-18T11:46:08;102556.78;;;8.24;100.00
37368;BME280;23240;43.210;27.910;2022-12-18T11:48:48;102549.94;;;8.17;100.00
37368;BME280;23240;43.210;27.910;2022-12-18T11:51:22;102532.41;;;8.32;100.00
37368;BME280;23240;43.210;27.910;2022-12-18T11:53:51;102537.97;;;8.27;100.00
37368;BME280;23240;43.210;27.910;2022-12-18T11:56:35;102540.97;;;8.40;100.00
37368;BME280;23240;43.210;27.910;2022-12-18T12:01:52;102542.00;;;8.77;100.00
37368;BME280;23240;43.210;27.910;2022-12-18T12:07:21;102549.16;;;8.76;100.00
37368;BME280;23240;43.210;27.910;2022-12-18T12:18:18;102571.56;;;8.53;100.00
37368;BME280;23240;43.210;27.910;2022-12-18T12:25:49;102590.44;;;8.69;100.00
37368;BME280;23240;43.210;27.910;2022-12-18T12:31:11;102605.19;;;8.78;100.00
37368;BME280;23240;43.210;27.910;2022-12-18T12:39:43;102593.09;;;8.69;100.00
37368;BME280;23240;43.210;27.910;2022-12-18T12:42:18;102604.41;;;8.75;100.00
37368;BME280;23240;43.210;27.910;2022-12-18T12:45:06;102613.28;;;8.76;100.00
37368;BME280;23240;43.210;27.910;2022-12-18T12:47:41;102613.63;;;8.68;100.00
37368;BME280;23240;43.210;27.910;2022-12-18T12:50:14;102624.31;;;8.68;100.00
37368;BME280;23240;43.210;27.910;2022-12-18T12:52:46;102628.78;;;8.68;100.00
37368;BME280;23240;43.210;27.910;2022-12-18T12:55:25;102638.31;;;8.53;100.00
37368;BME280;23240;43.210;27.910;2022-12-18T13:03:48;102640.09;;;8.32;100.00
37368;BME280;23240;43.210;27.910;2022-12-18T13:06:50;102638.59;;;8.25;100.00
37368;BME280;23240;43.210;27.910;2022-12-18T13:09:18;102634.25;;;8.22;100.00
37368;BME280;23240;43.210;27.910;2022-12-18T13:11:45;102648.50;;;8.21;100.00
37368;BME280;23240;43.210;27.910;2022-12-18T13:14:33;102639.59;;;8.22;100.00
37368;BME280;23240;43.210;27.910;2022-12-18T13:20:08;102661.63;;;8.06;100.00
37368;BME280;23240;43.210;27.910;2022-12-18T13:22:40;102657.84;;;7.89;100.00
37368;BME280;23240;43.210;27.910;2022-12-18T13:25:36;102660.44;;;7.91;100.00
37368;BME280;23240;43.210;27.910;2022-12-18T13:28:13;102669.38;;;7.90;100.00
37368;BME280;23240;43.210;27.910;2022-12-18T13:35:53;102671.00;;;7.94;100.00
37368;BME280;23240;43.210;27.910;2022-12-18T13:38:23;102674.22;;;8.02;100.00
37368;BME280;23240;43.210;27.910;2022-12-18T13:40:55;102673.44;;;8.00;100.00
37368;BME280;23240;43.210;27.910;2022-12-18T13:46:18;102677.31;;;7.91;100.00
37368;BME280;23240;43.210;27.910;2022-12-18T13:51:22;102682.84;;;7.87;100.00
37368;BME280;23240;43.210;27.910;2022-12-18T13:53:54;102684.56;;;7.88;100.00
37368;BME280;23240;43.210;27.910;2022-12-18T13:56:26;102704.25;;;7.85;100.00
37368;BME280;23240;43.210;27.910;2022-12-18T14:01:55;102718.13;;;7.71;100.00
37368;BME280;23240;43.210;27.910;2022-12-18T14:04:30;102728.03;;;7.68;100.00
37368;BME280;23240;43.210;27.910;2022-12-18T14:09:54;102722.94;;;7.62;100.00
37368;BME280;23240;43.210;27.910;2022-12-18T14:17:46;102735.03;;;7.47;100.00
37368;BME280;23240;43.210;27.910;2022-12-18T14:20:14;102739.19;;;7.56;100.00
37368;BME280;23240;43.210;27.910;2022-12-18T14:22:43;102733.78;;;7.57;100.00
37368;BME280;23240;43.210;27.910;2022-12-18T14:25:18;102729.13;;;7.62;100.00
37368;BME280;23240;43.210;27.910;2022-12-18T14:27:47;102742.38;;;7.65;100.00
37368;BME280;23240;43.210;27.910;2022-12-18T14:30:28;102739.03;;;7.59;100.00
37368;BME280;23240;43.210;27.910;2022-12-18T14:35:41;102760.19;;;7.65;100.00
37368;BME280;23240;43.210;27.910;2022-12-18T14:40:56;102772.66;;;7.64;100.00
37368;BME280;23240;43.210;27.910;2022-12-18T14:43:22;102778.84;;;7.65;100.00
37368;BME280;23240;43.210;27.910;2022-12-18T14:45:48;102766.38;;;7.65;100.00
37368;BME280;23240;43.210;27.910;2022-12-18T14:48:36;102762.78;;;7.66;100.00
37368;BME280;23240;43.210;27.910;2022-12-18T14:53:42;102770.84;;;7.65;100.00